Shell Point, Louisiana
Current Conditions -  °F | °C
As of 4:15 AM on Monday 26 Jan 2015 (Local Time) from KIER Reporting Station
Clear Clear  
Wind Chill: 40°   Ceiling: Unl
Heat Index: 44°   Visibility: 10mi
Dew Point: 34°   Wind: 7mph
Humidity: 67%   Direction: 320°NW
Pressure: 30.13"   Gusts: NA
Location:  31.6668°N, 92.8023°W
Report Text: KIER 261015Z AUTO 32006KT 10SM CLR 07/01 A3013 RMK AO2 T00670010
Loading
Personal Weather Stations






























Interactive Weather Map New forecast layout! Learn more

10-Day Weather Forecast

Advertisements
Track Severe Weather on mobile